Terminal Aerodrome Forecast
Issued by NWS

Home | Current Version | Previous Version | Text Only | Print | Product List | Glossary On
Versions: 1 2 3 4 5 6 7 8 9 10 11 12 13 14
000
FTUS43 KAPX 061739
TAFTVC
TAF
KTVC 061739Z 0618/0718 20009G17KT 6SM HZ SCT035 BKN250
     FM062200 21007KT P6SM VCSH OVC150
     FM070100 23005KT 4SM SHRA BR SCT025 OVC035 WS020/22030KT
     FM070800 30010KT 6SM -SHRA BR BKN009 OVC020
     FM071300 33012G16KT P6SM BKN025
     FM071600 34014G22KT P6SM FEW035=

USA.gov is the U.S. government's official web portal to all federal, state and local government web resources and services.